MATARÓ (Maresme)





Hora UTC 08:10
Temperatura 12.1 ºC
Humitat 84.3 %
Pressió 1002.0 hPa
Pluja 0.1 mm
Velocitat vent 4.0 km/h
Direcció vent WNW
Radiació solar 79.3 W/m²

Dades diàries 2022-12-10



Hora UTC (hivern +1h; estiu +2h)
Temperatura (ºC) Humitat (%) Pressió (hPa) Velocitat vent (km/h) Precipitació (mm) Radiació solar (W/m²)
Hora UTC Aire Humitat Pressió Vel. Dir. Vel. Max Dir. Intent. màx 5 min. Rad. Sol.
00:05 13.3 73.1 998.9 5.9 N 5.9 N 0.0 0.1
00:10 13.2 73.5 998.9 5.6 N 10.6 N 0.0 0.1
00:15 13.2 73.9 998.9 5.4 N 8.1 NNE 0.0 0.1
00:20 13.2 73.9 998.8 5.5 N 8.1 NNE 0.0 0.1
00:25 13.2 73.9 998.8 5.4 N 7.4 N 0.0 0.1
00:30 13.2 73.8 998.8 5.8 N 9.9 N 0.0 0.1
00:35 13.2 74.4 998.8 5.5 N 8.8 N 0.0 0.1
00:40 13.1 74.9 998.8 5.8 N 9.5 N 0.0 0.1
00:45 13.1 75.7 998.8 5.5 N 8.8 N 0.0 0.1
00:50 13.0 76.1 998.7 5.6 N 10.2 N 0.0 0.1
00:55 12.9 76.4 998.7 5.7 N 8.8 N 0.0 0.1
01:00 12.9 76.7 998.7 6.6 N 12.0 N 0.0 0.1
01:05 12.8 77.0 998.7 5.8 N 9.5 N 0.0 0.1
01:10 12.8 77.1 998.7 6.4 NNW 9.9 NNW 0.0 0.1
01:15 12.8 77.4 998.7 6.8 N 12.0 N 0.0 0.1
01:20 12.8 77.7 998.8 6.4 N 12.0 N 0.0 0.1
01:25 12.8 77.8 998.8 7.6 NNW 12.7 N 0.0 0.1
01:30 12.8 78.0 998.9 5.6 N 10.6 NNW 0.0 0.1
01:35 12.8 78.0 998.9 5.4 NNW 9.5 NNW 0.0 0.1
01:40 12.8 78.1 999.0 6.5 N 10.9 NNW 0.0 0.1
01:45 12.8 78.0 999.0 5.8 N 10.9 NNW 0.0 0.1
01:50 12.8 77.7 999.0 6.0 N 10.6 NNW 0.0 0.1
01:55 12.9 77.2 999.1 5.0 N 10.6 N 0.0 0.1
02:00 12.9 76.9 999.1 3.8 N 8.1 N 0.0 0.1
02:05 12.9 76.7 999.1 4.1 NNE 10.2 NNW 0.0 0.1
02:10 12.9 76.3 999.2 3.5 N 11.3 NNW 0.0 0.1
02:15 12.9 75.7 999.2 5.8 N 10.2 N 0.0 0.1
02:20 13.0 75.2 999.2 7.6 N 12.4 NW 0.0 0.1
02:25 13.1 74.5 999.3 7.2 N 12.4 N 0.0 0.1
02:30 13.1 74.5 999.3 6.1 N 9.9 NNW 0.0 0.1
02:35 13.1 74.1 999.4 6.2 N 11.3 NNE 0.0 0.1
02:40 13.1 73.6 999.4 7.0 N 13.8 NNE 0.0 0.1
02:45 13.2 73.2 999.4 6.5 N 11.6 NNE 0.0 0.1
02:50 13.2 72.7 999.4 8.7 N 15.2 NE 0.0 0.1
02:55 13.3 72.2 999.4 8.6 N 16.2 NNE 0.0 0.1
03:00 13.3 72.2 999.4 8.8 N 18.7 N 0.0 0.1
03:05 13.3 71.6 999.4 10.9 N 22.6 N 0.0 0.1
03:10 13.3 71.5 999.4 6.9 N 14.8 NNE 0.0 0.1
03:15 13.3 71.1 999.3 6.8 N 17.3 N 0.0 0.1
03:20 13.4 70.9 999.4 5.7 N 13.1 NE 0.0 0.1
03:25 13.4 70.8 999.4 6.6 N 12.7 NNE 0.0 0.1
03:30 13.4 70.5 999.4 4.9 N 14.1 N 0.0 0.1
03:35 13.4 70.4 999.3 3.8 N 13.8 N 0.0 0.1
03:40 13.4 70.6 999.3 5.5 NNE 12.0 NNW 0.0 0.1
03:45 13.4 70.5 999.3 5.9 NNE 13.4 E 0.0 0.1
03:50 13.4 70.9 999.4 3.9 ENE 9.9 NE 0.0 0.1
03:55 13.4 71.2 999.4 3.8 ESE 9.2 ESE 0.0 0.1
04:00 13.4 71.4 999.5 3.6 ESE 7.4 SE 0.0 0.1
04:05 13.3 71.6 999.5 2.6 SSE 4.9 SSE 0.0 0.1
04:10 13.3 71.2 999.6 1.5 SE 4.9 SE 0.0 0.1
04:15 13.3 71.7 999.7 1.6 NNW 3.5 NNW 0.0 0.1
04:20 13.1 73.0 999.8 5.6 NW 9.5 WNW 0.0 0.1
04:25 13.0 75.3 999.9 4.1 NNW 8.5 NW 0.0 0.1
04:30 12.7 77.9 999.9 8.8 NNW 13.4 NNW 0.0 0.1
04:35 12.4 81.3 999.9 9.6 NNW 13.1 NW 0.0 0.1
04:40 12.1 83.3 1000.0 10.4 NNW 13.1 NW 0.0 0.1
04:45 11.9 85.0 1000.0 9.9 NNW 12.7 NNW 0.0 0.1
04:50 11.8 85.1 1000.1 9.6 NNW 13.8 NNW 0.0 0.1
04:55 11.8 85.7 1000.1 7.7 NNW 10.9 NNW 0.1 0.1
05:00 11.7 86.7 1000.1 6.6 NNW 9.2 NNW 0.0 0.1
05:05 11.6 87.8 1000.2 5.3 NW 8.5 NW 0.0 0.1
05:10 11.5 89.1 1000.2 3.5 NNW 5.3 NW 0.0 0.1
05:15 11.5 89.5 1000.3 4.2 N 7.1 N 0.0 0.1
05:20 11.4 89.2 1000.3 5.8 N 8.8 N 0.0 0.1
05:25 11.5 87.2 1000.3 4.9 NNE 6.7 NNE 0.0 0.1
05:30 11.6 85.9 1000.3 2.3 NE 6.0 NNE 0.0 0.1
05:35 11.6 86.6 1000.3 0.0 NNE 0.0 NNE 0.0 0.1
05:40 11.5 88.4 1000.4 2.5 N 6.0 N 0.0 0.1
05:45 11.4 88.6 1000.5 5.7 N 6.7 N 0.0 0.1
05:50 11.4 88.2 1000.5 4.9 NNW 7.4 NW 0.0 0.1
05:55 11.4 88.7 1000.5 6.1 NNW 7.8 NNW 0.0 0.1
06:00 11.4 88.5 1000.6 3.5 NNW 6.0 NNW 0.0 0.1
06:05 11.3 88.9 1000.6 4.9 WNW 7.1 WNW 0.0 0.1
06:10 11.3 88.2 1000.7 4.7 NW 7.8 NW 0.0 0.1
06:15 11.3 88.2 1000.8 7.1 NW 8.5 NW 0.0 0.1
06:20 11.3 88.0 1000.9 5.5 NW 8.8 NNW 0.0 0.1
06:25 11.3 87.9 1000.9 6.3 NNW 9.5 NNW 0.0 0.1
06:30 11.2 87.5 1000.8 5.4 NNW 7.8 NNW 0.0 0.1
06:35 11.1 87.6 1000.8 5.1 NNW 6.0 NNW 0.0 0.1
06:40 11.0 87.9 1001.0 5.1 NW 6.0 NNW 0.0 0.1
06:45 10.9 87.4 1001.1 4.2 NW 5.6 NW 0.0 0.1
06:50 10.8 87.5 1001.2 4.2 WNW 5.6 WNW 0.0 0.3
06:55 11.0 86.6 1001.3 4.6 WNW 7.8 W 0.0 0.5
07:00 11.1 86.6 1001.3 5.1 WNW 8.1 NNW 0.0 0.7
07:05 11.1 87.2 1001.3 6.9 NW 9.5 NW 0.0 1.3
07:10 11.2 86.7 1001.4 6.5 NNW 9.9 NNW 0.0 2.0
07:15 11.4 86.0 1001.4 6.1 NW 8.8 NW 0.0 4.3
07:20 11.6 85.7 1001.5 4.8 NW 7.8 NW 0.0 7.3
07:25 11.6 86.0 1001.5 4.1 NW 8.8 WNW 0.0 7.2
07:30 11.6 86.4 1001.5 3.8 NW 6.7 W 0.0 8.3
07:35 11.6 86.3 1001.5 5.3 NNW 9.5 NNW 0.0 10.8
07:40 11.7 85.9 1001.6 6.0 NW 10.9 NNW 0.0 12.9
07:45 11.7 86.3 1001.7 3.8 NW 7.4 NNW 0.0 13.7
07:50 11.8 85.5 1001.8 5.4 NW 13.1 NW 0.0 18.6
07:55 11.8 85.3 1001.8 4.9 NW 10.6 NW 0.0 29.1
08:00 11.9 84.8 1001.8 4.2 WNW 9.9 W 0.0 77.9
08:05 12.0 85.7 1001.9 3.7 NW 7.4 NW 0.0 94.6
08:10 12.1 84.3 1002.0 4.0 WNW 10.9 WNW 0.0 79.3
Màxima 13.6 89.5 1002.0 10.9 N 22.6 N 0.1 94.6
Mínima 10.6 70.4 998.7
Total 0.1